Floyd, Virginia
Current Conditions -  °F | °C
As of 4:35 PM on Friday 31 Oct 2014 (Local Time) from KBCB Reporting Station
Overcast Overcast  
Wind Chill: 50°   Ceiling: 3700
Heat Index: 50°   Visibility: 10mi
Dew Point: 41°   Wind: 5mph
Humidity: 71%   Direction: 300°WNW
Pressure: 29.82"   Gusts: NA
Location:  36.91°N, 80.32°W
Report Text: KBCB 312035Z AUTO 30004KT 10SM OVC037 10/05 A2982 RMK AO2
Loading
Personal Weather Stations






























Interactive Weather Map
Tropical Storm Tracking
New forecast layout! Learn more

10-Day Weather Forecast

Advertisements
Track Severe Weather on mobile